Centerbrook, Connecticut
Current Conditions -  °F | °C
As of 6:15 PM on Saturday 25 Oct 2014 (Local Time) from KSNC Reporting Station
Clear Clear  
Wind Chill: 14°   Ceiling: Unl
Heat Index: 14°   Visibility: 10mi
Dew Point:   Wind: 5mph
Humidity: 67%   Direction: 230°SW
Pressure: 29.64"   Gusts: NA
Location:  41.35°N, 72.42°W
Report Text: KSNC 252215Z AUTO 23004KT 10SM CLR 14/08 A2964 RMK AO2
Loading
Personal Weather Stations






























Interactive Weather Map
Tropical Storm Tracking
New forecast layout! Learn more

10-Day Weather Forecast

Advertisements
Track Severe Weather on mobile